Glenwood Springs, CO (81601)

9:22 AM MDT on August 29, 2014 (GMT -0600)
Oak Meadows | Change Station
CLOSE
Current Station
Personal Weather Station
Location: Glenwood Springs, CO
Elevation: 7000 ft
Nearby Weather Stations

Elev 7000 ft 39.44 °N, 107.32 °W | Updated 0 second ago

Clear
Clear
56.9 °F
Feels Like 56.9 °F
N
0.0
Wind Variable Wind from NNE
Gusts 0.0 mph

Today
High -- | Low -- °F
--% Chance of Precip.
Yesterday
High -- | Low -- °F
Precip. -- in
6:34 AM 7:44 PM
Waxing Crescent, 15% visible
Pressure 30.11 in
Visibility 10.0 miles
Clouds Clear
Dew Point 48 °F
Humidity 72%
Rainfall 0.00 in
Snow Depth 0 in
UV 1 out of 12
Pollen 9.70 out of 12
Air Quality Not available.
Flu Activity Not available.
METAR KRIL 291353Z AUTO 06006KT 10SM CLR 12/08 A3025 RMK AO2 SLP194 T01220083

More Conditions Fewer Conditions

Pressure 30.11 in
Visibility 10.0 miles
Clouds Clear
Dew Point 48 °F
Humidity 72%
Rainfall 0.00 in
Snow Depth 0 in
UV 1 out of 12
Pollen 9.70 out of 12
Air Quality Not available.
Flu Activity Not available.
METAR KRIL 291353Z AUTO 06006KT 10SM CLR 12/08 A3025 RMK AO2 SLP194 T01220083

More Conditions Fewer Conditions

10-Day Weather Forecast

Almanac

Astronomy

Aug. 29, 2014 Rise Set
Actual Time 6:34 AM MDT 7:44 PM MDT
Civil Twilight 6:07 AM MDT 8:12 PM MDT
Nautical Twilight 5:33 AM MDT 8:45 PM MDT
Astronomical Twilight 4:59 AM MDT 9:20 PM MDT
Moon 10:26 AM MDT 9:45 PM MDT
Length of Visible Light 14h 05m
Length of Day
13h 09m
Tomorrow will be 2m 28s shorter.
Waxing Crescent, 15% of the Moon is Illuminated
Today
Waxing Crescent
Sep 2
First Quarter
Sep 8
Full
Sep 15
Last Quarter
Sep 24
New

Today's Extremes

State Highs State Lows

Community

WunderPhotos

Upload Photos

1,748,263 photos uploaded!

Nearby

Snow Depth

Station Depth Elevation
Bison Lake 0 in 10880 ft
McClure Pass 2 in 9500 ft
Burro Mountain 1 in 9400 ft
Trapper Lake 0 in 9700 ft
North Lost Trail 1 in 9200 ft

Earthquake Activity

City Distance Mag. Time & Date
No recent earthquake activity has been reported nearby.
Minimum magnitude displayed is 2.5.

Coastal Water Temperatures

Place Temperature
No Stations Reporting

Nearby Weather Stations